Time;durP1;ratioP1;P1;durP2;ratioP2;P2;SDS_P1;SDS_P2;PMS_P1;PMS_P2;Temp;Humidity;BMP_temperature;BMP_pressure;BME280_temperature;BME280_humidity;BME280_pressure;Samples;Min_cycle;Max_cycle;Signal;HPM_P1;HPM_P2
2023/12/29 00:08:14;;;;;;;0.80;0.40;;;5.50;99.90;;;;;;21050825;28;20078;-59
2023/12/29 00:18:15;;;;;;;0.65;0.40;;;5.40;99.90;;;;;;21054556;28;20036;-58
2023/12/29 00:28:20;;;;;;;0.60;0.40;;;5.30;99.90;;;;;;21000789;28;20044;-49
2023/12/29 00:38:22;;;;;;;0.50;0.30;;;5.30;99.90;;;;;;20981678;28;20039;-59
2023/12/29 00:48:24;;;;;;;0.50;0.40;;;5.40;99.90;;;;;;21037343;28;20028;-58
2023/12/29 00:58:26;;;;;;;0.60;0.40;;;5.30;99.90;;;;;;20976713;28;20058;-58
2023/12/29 01:08:33;;;;;;;1.33;0.70;;;5.50;99.90;;;;;;20983920;28;20051;-59
2023/12/29 01:18:35;;;;;;;0.50;0.40;;;5.50;99.90;;;;;;21008317;28;20040;-48
2023/12/29 01:28:37;;;;;;;0.57;0.40;;;5.40;99.90;;;;;;21038439;28;20494;-49
2023/12/29 01:38:39;;;;;;;1.02;0.65;;;5.30;99.90;;;;;;21045477;28;20035;-59
2023/12/29 01:48:41;;;;;;;1.25;0.40;;;5.20;99.90;;;;;;21070637;28;20032;-49
2023/12/29 01:58:44;;;;;;;0.90;0.50;;;5.50;99.90;;;;;;21047820;28;20028;-51
2023/12/29 02:08:47;;;;;;;1.25;0.77;;;5.60;99.90;;;;;;21042713;28;20044;-50
2023/12/29 02:18:51;;;;;;;1.85;0.80;;;5.30;99.90;;;;;;21064571;28;20036;-59
2023/12/29 02:29:00;;;;;;;1.95;1.00;;;4.80;99.90;;;;;;21049364;28;20044;-47
2023/12/29 02:39:01;;;;;;;4.50;2.65;;;4.80;99.90;;;;;;21058135;28;20431;-52
2023/12/29 02:49:03;;;;;;;4.30;2.00;;;4.10;99.90;;;;;;21065706;28;20081;-59
2023/12/29 02:59:05;;;;;;;6.93;3.60;;;3.60;99.90;;;;;;21043094;28;20054;-50
2023/12/29 03:09:07;;;;;;;7.72;3.72;;;3.80;99.90;;;;;;21055673;28;20035;-52
2023/12/29 03:19:08;;;;;;;7.78;4.97;;;3.10;99.90;;;;;;21060492;28;20381;-51
2023/12/29 03:29:11;;;;;;;7.68;4.50;;;2.50;99.90;;;;;;20998473;28;20075;-49
2023/12/29 03:39:13;;;;;;;6.63;4.47;;;2.30;99.90;;;;;;20995118;28;20024;-50
2023/12/29 03:49:14;;;;;;;8.52;4.47;;;2.30;99.90;;;;;;21060673;28;20024;-50
2023/12/29 03:59:16;;;;;;;7.35;4.38;;;2.10;99.90;;;;;;21056289;28;20032;-57
2023/12/29 04:09:18;;;;;;;8.65;4.90;;;2.00;99.90;;;;;;21021512;28;20077;-59
2023/12/29 04:19:20;;;;;;;8.65;5.20;;;1.80;99.90;;;;;;21024723;28;20685;-50
2023/12/29 04:29:23;;;;;;;8.95;5.22;;;1.70;99.90;;;;;;20993042;28;20514;-48
2023/12/29 04:39:24;;;;;;;12.25;5.05;;;1.50;99.90;;;;;;20989625;28;20037;-50
2023/12/29 04:49:26;;;;;;;9.73;5.22;;;1.40;99.90;;;;;;20975642;28;20032;-51
2023/12/29 04:59:28;;;;;;;9.43;5.13;;;1.70;99.90;;;;;;21026840;28;20031;-49
2023/12/29 05:09:30;;;;;;;7.15;4.70;;;2.00;99.90;;;;;;21029215;28;20563;-60
2023/12/29 05:19:32;;;;;;;6.22;4.10;;;1.90;99.90;;;;;;21024085;28;20168;-47
2023/12/29 05:29:36;;;;;;;8.85;4.28;;;1.80;99.90;;;;;;20989308;28;20055;-59
2023/12/29 05:39:42;;;;;;;7.40;3.40;;;1.80;99.90;;;;;;20973610;28;20078;-59
2023/12/29 05:49:44;;;;;;;3.97;2.80;;;1.30;99.90;;;;;;20975745;28;20861;-59
2023/12/29 05:59:46;;;;;;;4.65;3.00;;;1.00;99.90;;;;;;21050425;28;20089;-52
2023/12/29 06:09:47;;;;;;;5.07;2.70;;;0.70;99.90;;;;;;20981048;28;20036;-59
2023/12/29 06:19:49;;;;;;;4.40;2.80;;;0.50;99.90;;;;;;20971616;28;20086;-59
2023/12/29 06:29:51;;;;;;;5.45;2.90;;;0.50;99.90;;;;;;20979064;28;20044;-59
2023/12/29 06:39:53;;;;;;;4.38;2.80;;;0.50;99.90;;;;;;21040245;28;20059;-59
2023/12/29 06:49:55;;;;;;;5.30;2.97;;;0.10;99.90;;;;;;20986650;28;20029;-48
2023/12/29 06:59:57;;;;;;;7.07;4.25;;;-0.10;99.90;;;;;;20982808;28;20036;-59
2023/12/29 07:09:58;;;;;;;5.15;3.20;;;-0.10;99.90;;;;;;20990241;28;20072;-56
2023/12/29 07:20:00;;;;;;;6.38;3.90;;;0.00;99.90;;;;;;20984087;28;20044;-59
2023/12/29 07:30:03;;;;;;;5.45;3.40;;;0.00;99.90;;;;;;21001227;28;20105;-59
2023/12/29 07:40:07;;;;;;;7.22;4.05;;;0.20;99.90;;;;;;20990599;28;20052;-54
2023/12/29 07:50:10;;;;;;;8.43;4.35;;;0.40;99.90;;;;;;20982636;28;20025;-58
2023/12/29 08:00:13;;;;;;;6.53;3.80;;;0.70;99.90;;;;;;20988550;28;20082;-51
2023/12/29 08:10:14;;;;;;;5.90;3.55;;;1.40;99.90;;;;;;20943579;28;20486;-57
2023/12/29 08:20:16;;;;;;;5.50;3.40;;;2.10;99.90;;;;;;20967455;28;20090;-52
2023/12/29 08:30:22;;;;;;;4.65;3.30;;;3.00;99.90;;;;;;20980730;28;20109;-57
2023/12/29 08:40:24;;;;;;;4.05;2.75;;;3.90;99.90;;;;;;20977823;28;20024;-50
2023/12/29 08:50:28;;;;;;;5.35;2.92;;;4.70;99.90;;;;;;20974661;28;20043;-53
2023/12/29 09:00:30;;;;;;;3.60;2.47;;;5.50;99.90;;;;;;20956803;28;20055;-59
2023/12/29 09:10:32;;;;;;;4.88;2.80;;;6.00;99.90;;;;;;20978811;28;20044;-54
2023/12/29 09:20:33;;;;;;;3.67;2.15;;;6.10;99.90;;;;;;20974777;28;20039;-60
2023/12/29 09:30:35;;;;;;;2.90;2.13;;;6.00;99.90;;;;;;20954161;28;20048;-51
2023/12/29 09:40:37;;;;;;;3.50;2.28;;;6.00;99.90;;;;;;20975469;28;20032;-50
2023/12/29 09:50:40;;;;;;;3.60;2.42;;;5.70;99.90;;;;;;20969814;28;20543;-49
2023/12/29 10:00:42;;;;;;;2.58;2.08;;;5.40;99.90;;;;;;20973916;28;20036;-59
2023/12/29 10:10:46;;;;;;;3.63;2.20;;;5.80;99.90;;;;;;20990896;28;20101;-58
2023/12/29 10:21:03;;;;;;;2.50;1.85;;;5.90;99.90;;;;;;20987090;28;20078;-59
2023/12/29 10:31:05;;;;;;;2.20;1.80;;;6.00;99.90;;;;;;20962378;28;20447;-61
2023/12/29 10:41:18;;;;;;;3.55;1.70;;;6.00;99.90;;;;;;20968350;28;20033;-52
2023/12/29 10:51:29;;;;;;;0.77;0.47;;;6.20;99.90;;;;;;20917780;28;20093;-59
2023/12/29 11:01:36;;;;;;;0.60;0.38;;;6.10;99.90;;;;;;20920372;28;20418;-59
2023/12/29 11:11:39;;;;;;;0.63;0.30;;;5.90;99.90;;;;;;20949892;28;20036;-59
2023/12/29 11:21:46;;;;;;;0.43;0.30;;;6.00;99.90;;;;;;20958231;28;20045;-48
2023/12/29 11:31:52;;;;;;;0.60;0.20;;;6.40;99.90;;;;;;20993132;28;20052;-59
2023/12/29 11:42:07;;;;;;;0.10;0.10;;;6.70;99.90;;;;;;20981459;28;20041;-58
2023/12/29 11:52:08;;;;;;;0.20;0.10;;;7.20;99.90;;;;;;20975112;28;20064;-58
2023/12/29 12:02:27;;;;;;;0.22;0.10;;;7.60;99.90;;;;;;20978690;28;20021;-58
2023/12/29 12:12:40;;;;;;;0.10;0.03;;;8.40;99.90;;;;;;20977675;28;20044;-58
2023/12/29 12:22:45;;;;;;;1.65;0.10;;;9.00;99.90;;;;;;20970989;28;20076;-51
2023/12/29 12:33:00;;;;;;;0.20;0.10;;;8.70;99.90;;;;;;20923993;28;20102;-52
2023/12/29 12:43:03;;;;;;;0.10;0.10;;;8.60;99.90;;;;;;20950530;28;20129;-52
2023/12/29 12:53:09;;;;;;;0.60;0.50;;;8.60;99.90;;;;;;20947761;28;20029;-52
2023/12/29 13:03:11;;;;;;;2.75;1.88;;;8.50;99.90;;;;;;20947291;28;20028;-58
2023/12/29 13:13:14;;;;;;;2.85;1.10;;;8.60;99.90;;;;;;20927255;28;20044;-58
2023/12/29 13:23:15;;;;;;;0.10;0.10;;;8.40;99.90;;;;;;20942302;28;20494;-59
2023/12/29 13:33:36;;;;;;;0.20;0.10;;;7.80;99.90;;;;;;20957364;28;20535;-58
2023/12/29 13:43:42;;;;;;;0.30;0.03;;;7.40;99.90;;;;;;20968549;28;20054;-51
2023/12/29 13:53:44;;;;;;;0.20;0.10;;;7.00;99.90;;;;;;20950664;28;20379;-58
2023/12/29 14:03:59;;;;;;;0.08;0.00;;;7.00;99.90;;;;;;20945657;28;20094;-54
2023/12/29 14:14:01;;;;;;;0.17;0.08;;;6.90;99.90;;;;;;20943024;28;20241;-55
2023/12/29 14:24:09;;;;;;;0.20;0.00;;;6.80;99.90;;;;;;20967389;28;20048;-54
2023/12/29 14:34:12;;;;;;;1.88;1.23;;;6.70;99.90;;;;;;20974028;28;20078;-50
2023/12/29 14:44:13;;;;;;;0.45;0.30;;;6.20;99.90;;;;;;20946161;28;20086;-56
2023/12/29 14:54:15;;;;;;;0.93;0.10;;;6.10;99.90;;;;;;20938987;28;20024;-50
2023/12/29 15:04:17;;;;;;;0.30;0.10;;;6.30;99.90;;;;;;20966411;28;20028;-60
2023/12/29 15:14:19;;;;;;;0.00;0.00;;;6.30;99.90;;;;;;20963290;28;20028;-52
2023/12/29 15:24:20;;;;;;;0.13;0.05;;;6.20;99.90;;;;;;20946419;28;20114;-48
2023/12/29 15:34:22;;;;;;;5.80;3.83;;;6.20;99.90;;;;;;20922044;28;20076;-57
2023/12/29 15:44:24;;;;;;;2.83;1.50;;;5.40;99.90;;;;;;20946388;28;20345;-64
2023/12/29 15:54:29;;;;;;;0.90;0.70;;;5.30;99.90;;;;;;20887623;28;20357;-58
2023/12/29 16:04:31;;;;;;;3.10;1.83;;;5.00;99.90;;;;;;20916196;28;20118;-52
2023/12/29 16:14:32;;;;;;;7.78;5.30;;;4.80;99.90;;;;;;20897280;28;20099;-60
2023/12/29 16:24:38;;;;;;;5.82;3.80;;;4.80;99.90;;;;;;20941411;28;20080;-59
2023/12/29 16:35:02;;;;;;;2.90;1.90;;;4.20;99.90;;;;;;21114284;27;20404;-52
2023/12/29 16:45:04;;;;;;;6.43;3.72;;;4.20;99.90;;;;;;21121840;28;20040;-58
2023/12/29 16:55:06;;;;;;;7.20;4.43;;;4.30;99.90;;;;;;21123922;28;20034;-63
2023/12/29 17:05:08;;;;;;;10.60;5.70;;;4.30;99.90;;;;;;21100652;28;20036;-53
2023/12/29 17:15:11;;;;;;;8.27;5.57;;;4.60;99.90;;;;;;21127315;28;20035;-52
2023/12/29 17:25:13;;;;;;;7.32;4.20;;;4.00;99.90;;;;;;21142953;28;20032;-53
2023/12/29 17:35:23;;;;;;;0.40;0.20;;;3.60;99.90;;;;;;21134734;28;20389;-53
2023/12/29 17:45:25;;;;;;;1.27;0.90;;;5.10;99.90;;;;;;21057712;28;20081;-45
2023/12/29 17:55:27;;;;;;;3.88;2.30;;;6.10;99.90;;;;;;21068300;28;20028;-48
2023/12/29 18:05:29;;;;;;;9.32;6.03;;;5.70;99.90;;;;;;21041563;28;20040;-58
2023/12/29 18:15:31;;;;;;;9.38;5.68;;;4.60;99.90;;;;;;21069999;28;20024;-54
2023/12/29 18:25:34;;;;;;;14.02;8.25;;;4.00;99.90;;;;;;21027472;28;20041;-47
2023/12/29 18:35:38;;;;;;;2.30;1.00;;;3.70;99.90;;;;;;21075419;28;20419;-45
2023/12/29 18:45:41;;;;;;;6.45;3.60;;;3.70;99.90;;;;;;21074395;28;20511;-46
2023/12/29 18:55:44;;;;;;;4.82;3.65;;;4.10;99.90;;;;;;21071352;28;20032;-51
2023/12/29 19:05:46;;;;;;;10.60;7.07;;;4.20;99.90;;;;;;21073334;28;20028;-51
2023/12/29 19:15:47;;;;;;;10.13;4.80;;;4.20;99.90;;;;;;21072332;28;20024;-52
2023/12/29 19:25:50;;;;;;;9.02;6.32;;;4.20;99.90;;;;;;21069885;28;20062;-52
2023/12/29 19:35:53;;;;;;;7.28;4.68;;;3.70;99.90;;;;;;21070948;28;20066;-45
2023/12/29 19:45:56;;;;;;;19.67;12.65;;;3.70;99.90;;;;;;21070213;28;20031;-45
2023/12/29 19:55:58;;;;;;;18.92;12.23;;;3.40;99.90;;;;;;21069422;28;20039;-54
2023/12/29 20:06:00;;;;;;;24.80;14.63;;;3.10;99.90;;;;;;21068609;28;20432;-46
2023/12/29 20:16:02;;;;;;;34.83;17.27;;;2.80;99.90;;;;;;21068201;28;20036;-52
2023/12/29 20:26:04;;;;;;;24.95;15.60;;;2.50;99.90;;;;;;21088399;28;20105;-52
2023/12/29 20:36:06;;;;;;;28.15;16.25;;;2.50;99.90;;;;;;21236764;28;20035;-54
2023/12/29 20:46:09;;;;;;;23.63;15.30;;;2.70;99.90;;;;;;21235611;28;20396;-51
2023/12/29 20:56:11;;;;;;;32.28;18.85;;;2.80;99.90;;;;;;21231828;28;20096;-50
2023/12/29 21:06:18;;;;;;;36.13;19.35;;;2.70;99.90;;;;;;21235474;28;20027;-56
2023/12/29 21:16:20;;;;;;;29.15;17.10;;;2.80;99.90;;;;;;21213453;27;20059;-46
2023/12/29 21:26:23;;;;;;;31.77;19.50;;;2.70;99.90;;;;;;21162173;27;20178;-55
2023/12/29 21:36:30;;;;;;;33.97;19.08;;;2.80;99.90;;;;;;21080134;28;20032;-56
2023/12/29 21:46:41;;;;;;;28.17;17.02;;;2.90;99.90;;;;;;21079403;28;20031;-56
2023/12/29 21:56:44;;;;;;;32.72;19.23;;;2.90;99.90;;;;;;21078633;28;20079;-56
2023/12/29 22:06:46;;;;;;;32.33;17.35;;;2.80;99.90;;;;;;21078009;28;20123;-56
2023/12/29 22:16:50;;;;;;;27.55;15.32;;;2.80;99.90;;;;;;21077481;28;20040;-54
2023/12/29 22:26:52;;;;;;;32.40;18.48;;;2.80;99.90;;;;;;21091838;28;20036;-52
2023/12/29 22:36:53;;;;;;;38.80;20.20;;;2.60;99.90;;;;;;21160487;28;20036;-53
2023/12/29 22:46:55;;;;;;;32.38;18.52;;;2.50;99.90;;;;;;21159394;28;20027;-53
2023/12/29 22:56:57;;;;;;;35.53;18.52;;;2.40;99.90;;;;;;21158152;28;20027;-50
2023/12/29 23:06:58;;;;;;;45.88;24.25;;;2.50;99.90;;;;;;21157768;28;20493;-53
2023/12/29 23:17:08;;;;;;;43.92;21.45;;;2.30;99.90;;;;;;21156604;28;20089;-50
2023/12/29 23:27:11;;;;;;;31.58;17.33;;;2.30;99.90;;;;;;21155299;28;20047;-55
2023/12/29 23:37:13;;;;;;;35.63;19.70;;;2.30;99.90;;;;;;21154695;28;20023;-51
2023/12/29 23:47:15;;;;;;;31.60;17.00;;;2.40;99.90;;;;;;21154232;28;20031;-50
2023/12/29 23:57:19;;;;;;;22.08;13.60;;;2.30;99.90;;;;;;21153636;28;20389;-55
